Schedule Details


Flight Number: CTN4478
Departure: Cilipi (LDDU) at 17:55
Arrival: Nice/cote Dazur (LFMN) at 19:40
Route: AMUGO UL611 UMSON UM730 TORPO M730 KEGED KEG1A ANC M730 PIDEP M872 VABMO M730 GEN M859 LAGEN Q712 ENOBA Z185 BORDI

Weather Information
LDDU 242130Z 05009KT 020V100 CAVOK 26/14 Q1016
LFMN 242130Z 33006KT CAVOK 27/15 Q1018 NOSIG
Schedule Frequency

Route Map